createdAt,value
2022-10-02T00:01:52.480Z,100.00
2022-10-02T00:04:28.288Z,100.00
2022-10-02T00:07:06.946Z,99.91
2022-10-02T00:09:47.689Z,100.00
2022-10-02T00:12:21.356Z,100.00
2022-10-02T00:14:58.704Z,100.00
2022-10-02T00:17:34.565Z,100.00
2022-10-02T00:20:08.863Z,100.00
2022-10-02T00:22:52.452Z,100.00
2022-10-02T00:25:30.042Z,100.00
2022-10-02T00:28:22.253Z,100.00
2022-10-02T00:31:17.846Z,100.00
2022-10-02T00:34:05.086Z,100.00
2022-10-02T00:36:50.221Z,100.00
2022-10-02T00:39:39.856Z,100.00
2022-10-02T00:42:56.664Z,100.00
2022-10-02T00:45:54.856Z,100.00
2022-10-02T00:49:03.615Z,100.00
2022-10-02T00:51:57.705Z,100.00
2022-10-02T00:55:17.414Z,100.00
2022-10-02T00:58:09.366Z,100.00
2022-10-02T01:00:39.214Z,100.00
2022-10-02T01:03:19.135Z,98.04
2022-10-02T01:05:48.031Z,98.14
2022-10-02T01:08:18.320Z,100.00
2022-10-02T01:10:49.138Z,100.00
2022-10-02T01:13:18.404Z,100.00
2022-10-02T01:15:54.643Z,100.00
2022-10-02T01:18:24.018Z,100.00
2022-10-02T01:20:59.764Z,100.00
2022-10-02T01:23:37.603Z,93.86
2022-10-02T01:26:08.124Z,98.23
2022-10-02T01:28:36.931Z,95.59
2022-10-02T01:31:12.659Z,91.68
2022-10-02T01:33:44.259Z,95.79
2022-10-02T01:36:16.054Z,94.99
2022-10-02T01:38:48.467Z,94.22
2022-10-02T01:41:18.627Z,93.97
2022-10-02T01:43:52.734Z,98.26
2022-10-02T01:46:41.143Z,97.49
2022-10-02T01:49:36.023Z,93.48
2022-10-02T01:52:23.801Z,95.85
2022-10-02T01:55:17.976Z,98.76
2022-10-02T01:58:05.159Z,100.00
2022-10-02T02:00:53.013Z,100.00
2022-10-02T02:03:31.597Z,100.00
2022-10-02T02:06:10.750Z,100.00
2022-10-02T02:08:48.608Z,100.00
2022-10-02T02:11:21.680Z,100.00
2022-10-02T02:13:59.780Z,100.00
2022-10-02T02:16:37.260Z,100.00
2022-10-02T02:19:13.535Z,100.00
2022-10-02T02:21:48.738Z,99.84
2022-10-02T02:24:24.740Z,98.97
2022-10-02T02:27:00.391Z,100.00
2022-10-02T02:34:11.694Z,100.00
2022-10-02T02:36:46.066Z,99.03
2022-10-02T02:39:19.678Z,96.56
2022-10-02T02:41:56.214Z,96.10
2022-10-02T02:44:31.425Z,91.22
2022-10-02T02:47:08.974Z,94.36
2022-10-02T02:49:51.930Z,92.16
2022-10-02T02:52:27.336Z,94.25
2022-10-02T02:55:04.619Z,93.51
2022-10-02T02:57:42.621Z,90.13
2022-10-02T03:00:15.944Z,93.46
2022-10-02T03:02:44.567Z,91.01
2022-10-02T03:05:20.046Z,96.70
2022-10-02T03:07:55.792Z,100.00
2022-10-02T03:10:41.751Z,96.38
2022-10-02T03:13:30.603Z,96.87
2022-10-02T03:16:17.121Z,95.53
2022-10-02T03:19:11.660Z,96.33
2022-10-02T03:21:55.834Z,96.61
2022-10-02T03:24:31.917Z,95.02
2022-10-02T03:27:09.839Z,93.85
2022-10-02T03:29:46.413Z,98.90
2022-10-02T03:32:19.328Z,97.91
2022-10-02T03:34:49.756Z,99.27
2022-10-02T03:37:21.167Z,97.84
2022-10-02T03:39:51.712Z,100.00
2022-10-02T03:42:27.028Z,100.00
2022-10-02T03:44:55.543Z,100.00
2022-10-02T03:47:24.459Z,100.00
2022-10-02T03:49:53.072Z,98.08
2022-10-02T03:52:24.969Z,100.00
2022-10-02T03:54:58.815Z,100.00
2022-10-02T03:57:27.801Z,98.22
2022-10-02T04:00:04.979Z,96.81
2022-10-02T04:02:41.555Z,94.98
2022-10-02T04:05:22.635Z,93.48
2022-10-02T04:07:59.049Z,95.25
2022-10-02T04:10:37.776Z,98.90
2022-10-02T04:13:17.163Z,100.00
2022-10-02T04:16:05.368Z,95.24
2022-10-02T04:18:43.623Z,93.75
2022-10-02T04:21:27.367Z,96.30
2022-10-02T04:24:05.619Z,99.67
2022-10-02T04:26:40.831Z,100.00
2022-10-02T04:29:23.321Z,93.18
2022-10-02T04:31:59.545Z,97.78
2022-10-02T04:34:29.381Z,98.68
2022-10-02T04:37:21.933Z,94.82
2022-10-02T04:40:12.578Z,97.16
2022-10-02T04:44:23.953Z,98.07
2022-10-02T04:47:16.961Z,97.00
2022-10-02T04:50:21.701Z,100.00
2022-10-02T04:53:26.241Z,98.17
2022-10-02T04:56:51.985Z,96.76
2022-10-02T04:59:43.377Z,99.78
2022-10-02T05:02:36.963Z,100.00
2022-10-02T05:05:29.821Z,96.92
2022-10-02T05:08:22.159Z,99.14
2022-10-02T05:11:13.337Z,100.00
2022-10-02T05:14:14.615Z,99.38
2022-10-02T05:17:00.294Z,100.00
2022-10-02T05:20:00.401Z,99.44
2022-10-02T05:23:02.018Z,98.56
2022-10-02T05:25:54.361Z,99.57
2022-10-02T05:28:54.583Z,100.00
2022-10-02T05:31:42.725Z,100.00
2022-10-02T05:34:38.849Z,100.00
2022-10-02T05:37:30.565Z,99.44
2022-10-02T05:40:08.328Z,100.00
2022-10-02T05:42:46.883Z,96.98
2022-10-02T05:45:28.331Z,98.44
2022-10-02T05:48:11.448Z,100.00
2022-10-02T05:50:42.671Z,99.48
2022-10-02T05:53:32.889Z,97.86
2022-10-02T05:56:10.089Z,99.42
2022-10-02T05:58:51.483Z,98.97
2022-10-02T06:06:03.921Z,99.09
2022-10-02T06:08:41.929Z,97.35
2022-10-02T06:11:21.368Z,98.28
2022-10-02T06:13:55.916Z,100.00
2022-10-02T06:21:06.893Z,96.77
2022-10-02T06:23:41.648Z,97.36
2022-10-02T06:26:17.575Z,98.17
2022-10-02T06:28:54.266Z,99.81
2022-10-02T06:31:31.446Z,100.00
2022-10-02T06:34:00.421Z,100.00
2022-10-02T06:37:04.490Z,100.00
2022-10-02T06:41:11.958Z,100.00
2022-10-02T06:43:59.327Z,100.00
2022-10-02T06:46:43.133Z,100.00
2022-10-02T06:49:26.858Z,100.00
2022-10-02T06:52:13.427Z,100.00
2022-10-02T06:55:02.718Z,98.67
2022-10-02T06:58:01.318Z,100.00
2022-10-02T07:00:35.328Z,100.00
2022-10-02T07:03:43.100Z,99.23
2022-10-02T07:06:36.971Z,100.00
2022-10-02T07:09:53.597Z,100.00
2022-10-02T07:12:56.409Z,100.00
2022-10-02T07:15:53.226Z,98.34
2022-10-02T07:18:37.270Z,100.00
2022-10-02T07:21:17.061Z,100.00
2022-10-02T07:24:02.249Z,100.00
2022-10-02T07:26:50.274Z,97.92
2022-10-02T07:29:39.125Z,96.93
2022-10-02T07:36:56.873Z,94.26
2022-10-02T07:39:43.683Z,95.71
2022-10-02T07:42:41.727Z,94.96
2022-10-02T07:45:30.202Z,92.26
2022-10-02T07:48:35.991Z,95.13
2022-10-02T07:51:42.494Z,91.90
2022-10-02T07:54:31.688Z,98.01
2022-10-02T07:57:21.325Z,95.99
2022-10-02T07:59:55.676Z,94.72
2022-10-02T08:02:34.179Z,92.89
2022-10-02T08:05:09.972Z,88.51
2022-10-02T08:07:38.840Z,88.44
2022-10-02T08:10:15.026Z,92.32
2022-10-02T08:12:55.259Z,91.52
2022-10-02T08:15:29.761Z,91.94
2022-10-02T08:18:23.198Z,87.88
2022-10-02T08:20:54.795Z,86.65
2022-10-02T08:23:29.230Z,89.48
2022-10-02T08:26:08.291Z,87.87
2022-10-02T08:28:46.392Z,87.77
2022-10-02T08:31:16.466Z,84.92
2022-10-02T08:33:45.548Z,82.81
2022-10-02T08:36:45.548Z,82.87
2022-10-02T08:39:50.535Z,84.20
2022-10-02T08:42:58.958Z,86.86
2022-10-02T08:46:02.484Z,85.01
2022-10-02T08:49:37.696Z,86.50
2022-10-02T08:52:54.488Z,83.75
2022-10-02T08:56:03.452Z,84.85
2022-10-02T08:59:18.315Z,82.81
2022-10-02T09:02:38.387Z,74.86
2022-10-02T09:10:27.121Z,69.76
2022-10-02T09:13:48.127Z,71.30
2022-10-02T09:16:30.156Z,74.22
2022-10-02T09:19:04.322Z,72.47
2022-10-02T09:21:56.078Z,71.41
2022-10-02T09:25:14.399Z,71.49
2022-10-02T09:28:26.609Z,74.87
2022-10-02T09:31:32.222Z,72.88
2022-10-02T09:34:43.362Z,68.19
2022-10-02T09:38:14.306Z,62.27
2022-10-02T09:41:23.670Z,54.93
2022-10-02T09:44:49.064Z,50.85
2022-10-02T09:48:10.964Z,47.01
2022-10-02T09:51:57.245Z,41.72
2022-10-02T09:55:43.055Z,44.33
2022-10-02T09:59:03.901Z,50.46
2022-10-02T10:06:55.296Z,60.36
2022-10-02T10:10:07.987Z,65.75
2022-10-02T10:13:36.294Z,65.98
2022-10-02T10:16:47.207Z,57.01
2022-10-02T10:20:11.378Z,53.26
2022-10-02T10:23:26.122Z,44.94
2022-10-02T10:26:44.086Z,43.06
2022-10-02T10:35:04.438Z,53.41
2022-10-02T10:43:14.371Z,55.28
2022-10-02T10:46:11.482Z,59.39
2022-10-02T10:49:11.448Z,63.50
2022-10-02T10:51:49.873Z,68.17
2022-10-02T10:54:54.124Z,67.65
2022-10-02T10:57:53.207Z,68.60
2022-10-02T11:00:25.941Z,68.69
2022-10-02T11:03:33.267Z,70.25
2022-10-02T11:06:36.722Z,67.51
2022-10-02T11:09:42.809Z,66.79
2022-10-02T11:13:00.439Z,67.04
2022-10-02T11:16:07.558Z,68.11
2022-10-02T11:19:11.817Z,66.55
2022-10-02T11:22:30.094Z,67.50
2022-10-02T11:26:07.919Z,68.79
2022-10-02T11:29:21.866Z,67.79
2022-10-02T11:32:19.432Z,67.08
2022-10-02T11:35:24.705Z,65.05
2022-10-02T11:38:32.605Z,65.99
2022-10-02T11:41:39.226Z,63.09
2022-10-02T11:44:32.983Z,63.85
2022-10-02T11:47:34.854Z,64.57
2022-10-02T11:50:41.366Z,62.56
2022-10-02T11:53:37.940Z,61.58
2022-10-02T11:56:31.222Z,65.19
2022-10-02T11:59:28.428Z,68.32
2022-10-02T12:02:08.609Z,66.32
2022-10-02T12:04:52.581Z,67.87
2022-10-02T12:07:41.616Z,68.25
2022-10-02T12:10:34.069Z,65.81
2022-10-02T12:13:29.997Z,70.27
2022-10-02T12:16:11.833Z,67.25
2022-10-02T12:18:58.445Z,69.30
2022-10-02T12:22:07.577Z,65.75
2022-10-02T12:25:08.810Z,66.73
2022-10-02T12:27:53.538Z,65.21
2022-10-02T12:30:25.708Z,65.49
2022-10-02T12:33:22.614Z,65.05
2022-10-02T12:36:15.525Z,66.27
2022-10-02T12:39:05.452Z,71.74
2022-10-02T12:42:00.095Z,77.30
2022-10-02T12:44:56.443Z,79.48
2022-10-02T12:47:49.341Z,81.41
2022-10-02T12:50:36.747Z,80.39
2022-10-02T12:54:11.160Z,82.55
2022-10-02T12:57:36.662Z,87.21
2022-10-02T13:00:15.702Z,76.60
2022-10-02T13:03:33.584Z,76.74
2022-10-02T13:06:53.123Z,75.72
2022-10-02T13:09:37.113Z,76.17
2022-10-02T13:12:23.833Z,75.60
2022-10-02T13:15:29.174Z,73.79
2022-10-02T13:18:18.484Z,74.89
2022-10-02T13:21:02.871Z,77.52
2022-10-02T13:28:36.448Z,72.02
2022-10-02T13:31:22.364Z,72.99
2022-10-02T13:34:26.057Z,73.53
2022-10-02T13:37:15.481Z,72.29
2022-10-02T13:40:04.545Z,70.98
2022-10-02T13:42:52.906Z,72.20
2022-10-02T13:45:33.418Z,70.32
2022-10-02T13:48:16.596Z,71.20
2022-10-02T13:50:58.188Z,71.25
2022-10-02T13:54:01.054Z,73.53
2022-10-02T13:56:47.792Z,72.90
2022-10-02T13:59:37.825Z,69.80
2022-10-02T14:02:34.932Z,74.15
2022-10-02T14:05:15.996Z,69.96
2022-10-02T14:08:13.900Z,72.75
2022-10-02T14:11:00.162Z,71.79
2022-10-02T14:13:49.625Z,69.16
2022-10-02T14:16:44.761Z,69.00
2022-10-02T14:19:57.181Z,67.98
2022-10-02T14:23:03.180Z,68.82
2022-10-02T14:25:49.028Z,68.67
2022-10-02T14:33:06.179Z,73.12
2022-10-02T14:35:55.168Z,73.94
2022-10-02T14:38:49.719Z,72.90
2022-10-02T14:41:49.375Z,74.37
2022-10-02T14:44:55.787Z,71.46
2022-10-02T14:47:52.688Z,73.24
2022-10-02T14:50:52.731Z,73.81
2022-10-02T14:53:50.412Z,72.33
2022-10-02T14:56:54.311Z,74.25
2022-10-02T15:00:08.631Z,73.81
2022-10-02T15:03:24.865Z,73.09
2022-10-02T15:06:23.818Z,72.30
2022-10-02T15:09:00.176Z,74.78
2022-10-02T15:11:54.450Z,72.15
2022-10-02T15:14:35.389Z,73.02
2022-10-02T15:17:32.506Z,72.95
2022-10-02T15:20:13.469Z,75.49
2022-10-02T15:22:57.197Z,71.83
2022-10-02T15:25:45.386Z,75.45
2022-10-02T15:28:42.838Z,74.00
2022-10-02T15:31:25.604Z,72.29
2022-10-02T15:34:12.343Z,77.30
2022-10-02T15:37:06.126Z,74.40
2022-10-02T15:40:11.939Z,75.08
2022-10-02T15:42:53.219Z,74.99
2022-10-02T15:46:04.032Z,77.03
2022-10-02T15:49:01.175Z,76.39
2022-10-02T15:51:51.561Z,76.48
2022-10-02T15:54:39.940Z,73.98
2022-10-02T15:57:34.157Z,76.17
2022-10-02T16:00:16.087Z,74.51
2022-10-02T16:03:13.381Z,79.24
2022-10-02T16:05:54.497Z,78.46
2022-10-02T16:09:27.419Z,80.31
2022-10-02T16:12:16.077Z,81.37
2022-10-02T16:15:02.391Z,83.57
2022-10-02T16:17:57.107Z,84.84
2022-10-02T16:21:02.262Z,89.07
2022-10-02T16:24:02.741Z,91.62
2022-10-02T16:27:02.491Z,93.75
2022-10-02T16:29:45.901Z,95.87
2022-10-02T16:32:31.898Z,97.26
2022-10-02T16:35:21.063Z,97.81
2022-10-02T16:38:00.835Z,98.91
2022-10-02T16:40:42.530Z,99.70
2022-10-02T16:43:38.193Z,100.00
2022-10-02T16:46:14.872Z,100.00
2022-10-02T16:48:56.955Z,100.00
2022-10-02T16:51:45.699Z,100.00
2022-10-02T16:54:25.355Z,100.00
2022-10-02T16:57:02.077Z,100.00
2022-10-02T16:59:43.912Z,100.00
2022-10-02T17:02:22.235Z,100.00
2022-10-02T17:05:14.059Z,100.00
2022-10-02T17:07:58.988Z,100.00
2022-10-02T17:10:53.243Z,100.00
2022-10-02T17:13:37.477Z,100.00
2022-10-02T17:16:18.840Z,100.00
2022-10-02T17:18:57.305Z,100.00
2022-10-02T17:21:40.377Z,100.00
2022-10-02T17:24:32.693Z,100.00
2022-10-02T17:27:36.073Z,100.00
2022-10-02T17:30:16.420Z,100.00
2022-10-02T17:33:15.977Z,100.00
2022-10-02T17:35:56.918Z,100.00
2022-10-02T17:39:19.021Z,100.00
2022-10-02T17:41:56.981Z,100.00
2022-10-02T17:44:45.359Z,100.00
2022-10-02T17:47:55.229Z,100.00
2022-10-02T17:51:19.488Z,100.00
2022-10-02T17:54:37.503Z,100.00
2022-10-02T17:57:44.937Z,100.00
2022-10-02T18:00:21.977Z,100.00
2022-10-02T18:03:31.315Z,100.00
2022-10-02T18:06:18.174Z,100.00
2022-10-02T18:09:29.668Z,100.00
2022-10-02T18:12:53.250Z,100.00
2022-10-02T18:15:40.177Z,100.00
2022-10-02T18:18:34.216Z,100.00
2022-10-02T18:21:27.861Z,100.00
2022-10-02T18:24:23.043Z,100.00
2022-10-02T18:27:28.384Z,100.00
2022-10-02T18:30:12.236Z,100.00
2022-10-02T18:33:24.178Z,100.00
2022-10-02T18:36:12.772Z,100.00
2022-10-02T18:39:02.391Z,100.00
2022-10-02T18:41:56.932Z,100.00
2022-10-02T18:44:55.058Z,100.00
2022-10-02T18:47:45.558Z,100.00
2022-10-02T18:51:57.018Z,100.00
2022-10-02T18:54:41.506Z,100.00
2022-10-02T18:57:43.540Z,100.00
2022-10-02T19:00:21.514Z,100.00
2022-10-02T19:03:25.056Z,100.00
2022-10-02T19:06:07.234Z,100.00
2022-10-02T19:09:06.025Z,100.00
2022-10-02T19:13:17.928Z,100.00
2022-10-02T19:15:52.382Z,100.00
2022-10-02T19:18:23.594Z,99.44
2022-10-02T19:20:59.559Z,98.78
2022-10-02T19:28:02.946Z,87.67
2022-10-02T19:30:35.010Z,87.53
2022-10-02T19:33:09.642Z,89.74
2022-10-02T19:35:45.147Z,90.95
2022-10-02T19:38:28.305Z,92.97
2022-10-02T19:45:34.606Z,90.82
2022-10-02T19:48:09.708Z,100.00
2022-10-02T19:50:46.569Z,100.00
2022-10-02T19:53:25.252Z,99.38
2022-10-02T19:55:58.178Z,98.52
2022-10-02T19:58:37.183Z,97.92
2022-10-02T20:01:15.796Z,100.00
2022-10-02T20:03:48.012Z,99.92
2022-10-02T20:06:23.669Z,97.20
2022-10-02T20:09:02.214Z,97.54
2022-10-02T20:11:39.898Z,96.85
2022-10-02T20:14:16.530Z,99.38
2022-10-02T20:17:02.872Z,100.00
2022-10-02T20:19:38.626Z,98.00
2022-10-02T20:22:18.105Z,98.37
2022-10-02T20:24:54.704Z,97.42
2022-10-02T20:27:34.861Z,98.06
2022-10-02T20:30:14.055Z,97.55
2022-10-02T20:32:50.205Z,100.00
2022-10-02T20:35:29.339Z,100.00
2022-10-02T20:38:02.489Z,100.00
2022-10-02T20:40:36.643Z,99.24
2022-10-02T20:43:15.776Z,97.10
2022-10-02T20:45:53.123Z,100.00
2022-10-02T20:49:08.016Z,100.00
2022-10-02T20:52:20.441Z,100.00
2022-10-02T20:54:59.725Z,100.00
2022-10-02T20:58:27.175Z,100.00
2022-10-02T21:01:18.129Z,99.34
2022-10-02T21:04:25.917Z,95.74
2022-10-02T21:07:35.013Z,93.76
2022-10-02T21:11:09.753Z,90.61
2022-10-02T21:18:58.166Z,89.28
2022-10-02T21:22:26.508Z,87.80
2022-10-02T21:25:36.486Z,88.41
2022-10-02T21:29:10.167Z,87.18
2022-10-02T21:31:58.577Z,86.83
2022-10-02T21:34:48.618Z,87.20
2022-10-02T21:37:29.245Z,89.40
2022-10-02T21:40:47.241Z,89.14
2022-10-02T21:44:00.214Z,90.13
2022-10-02T21:47:02.974Z,88.88
2022-10-02T21:50:32.347Z,87.73
2022-10-02T21:53:51.857Z,90.42
2022-10-02T21:57:40.280Z,88.65
2022-10-02T22:00:16.162Z,86.94
2022-10-02T22:03:33.774Z,87.75
2022-10-02T22:06:27.098Z,88.37
2022-10-02T22:09:32.628Z,87.39
2022-10-02T22:12:22.072Z,89.93
2022-10-02T22:15:05.658Z,86.41
2022-10-02T22:17:52.520Z,87.21
2022-10-02T22:20:48.131Z,85.29
2022-10-02T22:23:40.716Z,90.13
2022-10-02T22:26:37.912Z,88.09
2022-10-02T22:29:16.586Z,93.13
2022-10-02T22:32:26.205Z,91.93
2022-10-02T22:35:11.782Z,86.40
2022-10-02T22:38:05.709Z,88.87
2022-10-02T22:40:52.123Z,91.05
2022-10-02T22:43:31.559Z,85.28
2022-10-02T22:46:08.760Z,88.99
2022-10-02T22:48:47.326Z,87.33
2022-10-02T22:51:25.067Z,88.02
2022-10-02T22:54:05.189Z,90.60
2022-10-02T22:56:43.812Z,87.55
2022-10-02T22:59:20.604Z,89.63
2022-10-02T23:01:59.455Z,88.18
2022-10-02T23:04:38.136Z,94.42
2022-10-02T23:07:17.513Z,88.98
2022-10-02T23:09:57.956Z,90.72
2022-10-02T23:12:38.053Z,91.77
2022-10-02T23:15:31.647Z,90.21
2022-10-02T23:18:06.129Z,90.38
2022-10-02T23:20:43.930Z,94.98
2022-10-02T23:23:21.706Z,95.07
2022-10-02T23:25:57.488Z,92.46
2022-10-02T23:28:32.190Z,92.94
2022-10-02T23:31:18.212Z,91.08
2022-10-02T23:33:57.335Z,94.25
2022-10-02T23:36:37.021Z,95.05
2022-10-02T23:39:16.783Z,98.08
2022-10-02T23:41:53.242Z,92.30
2022-10-02T23:44:36.699Z,91.42
2022-10-02T23:47:25.360Z,88.97
2022-10-02T23:49:56.728Z,89.63
2022-10-02T23:53:17.786Z,92.30
2022-10-02T23:56:10.194Z,92.44
2022-10-02T23:59:01.013Z,92.77
